Steinsel, Luxembourg
Current Conditions -  °F | °C
As of 6:20 AM on Sunday 21 Dec 2014 (Local Time) from ELLX Reporting Station
Broken Clouds Broken Clouds  
Wind Chill: 31°   Ceiling: 700
Heat Index: 36°   Visibility: 6mi
Dew Point: 36°   Wind: 6mph
Humidity: 100%   Direction: 230°SW
Pressure: 30.45"   Gusts: NA
Location:  49.68°N, 6.12°E
Report Text: ELLX 210520Z 23005KT 210V270 9999 FEW004 BKN007 02/02 Q1031 NOSIG
Loading
Personal Weather Stations






























Interactive Weather Map New forecast layout! Learn more

10-Day Weather Forecast

Advertisements
Track Severe Weather on mobile